Airfield :
LOGIN :

Register | Disclaimer

   EN    FR    IT 

 










Legend :    VFR   Marginal VFR   IFR   Intensive IFR   Very Intensive IFR
Visi :
Ceiling :
>= 8 km
>= 3000ft
5 to 8 km
1000 to 3000 ft
1500m to 5 km
500 to 1000 ft
800 to 1500m
200 to 500 ft
< 800m
< 200 ft
Symbols :   Thunderstorms  Fog  Heavy snow  Heavy precipitations  Wind > 20 kt
SIGMETs :     Misc.  Thunderstorms  Icing  Turbulence  Mountain Waves  Volcanic Ashes






- Airport Elevation : 74 ft
- IATA code : MRS


LFML - Marseille / Marignane

CURRENT METAR :
  • 082100Z AUTO 01005KT 9000 -RA OVC039 08/07 Q1018 TEMPO 4000 BR BKN014

EXPIRED METARs :
  • 082030Z AUTO VRB02KT 9999 FEW044 BKN050 BKN088 08/07 Q1018 BECMG RA BKN014 BKN020
  • 082000Z AUTO 00000KT 9999 FEW023 BKN084 08/07 Q1018 BECMG RA BKN014 BKN020
  • 081930Z AUTO VRB02KT CAVOK 08/06 Q1018 BECMG RA BKN014 BKN020
  • 081900Z AUTO 12005KT CAVOK 07/05 Q1018 BECMG RA BKN014 BKN020
  • 081830Z AUTO 13004KT CAVOK 07/05 Q1018 BECMG RA BKN014 BKN020

TAF TAF LFML
Valid from the 08 at 21:00 until the 10 at 03:00 UTC


082000Z 0821/1003 VRB02KT 9999 BKN030 BKN050
PROB30
TEMPO 0822/0902 4000 BR BKN014
BECMG 0902/0905 30010KT CAVOK
TEMPO 0907/0921 30015G25KT
BECMG 0921/0924 32025G40KT
TEMPO 1000/1003 32030G50KT
ATIS : +33 4 42 31 15 15



MET'MAP, your aeronautical weather chart ! - Copyright ORBIFLY December 2007 - Disclaimer

ORBIFLY MET'MAP TEAM :

Programming & Development : Alexandra Zaïnal
Concept & original design : Baudouin d'Aumeries
Assistance for programming : Marc-Olivier Méhu
Technical & hardware support : Manuel Goepfert

Contact : metmap@orbifly.com




SOURCES & CREDITS :

   NOAA